createdAt,value
2022-10-11T00:00:59.527Z,27.03
2022-10-11T00:03:35.450Z,27.02
2022-10-11T00:06:06.231Z,27.00
2022-10-11T00:08:35.201Z,26.97
2022-10-11T00:11:06.034Z,26.95
2022-10-11T00:13:34.581Z,26.93
2022-10-11T00:16:07.914Z,26.91
2022-10-11T00:18:36.683Z,26.91
2022-10-11T00:21:08.706Z,26.91
2022-10-11T00:23:36.934Z,26.89
2022-10-11T00:26:07.643Z,26.88
2022-10-11T00:28:36.986Z,26.84
2022-10-11T00:31:13.915Z,26.83
2022-10-11T00:33:42.133Z,26.81
2022-10-11T00:36:13.916Z,26.82
2022-10-11T00:38:42.127Z,26.79
2022-10-11T00:41:10.849Z,26.79
2022-10-11T00:43:39.629Z,26.77
2022-10-11T00:46:13.806Z,26.77
2022-10-11T00:48:51.383Z,26.75
2022-10-11T00:51:40.817Z,26.73
2022-10-11T00:54:13.237Z,26.72
2022-10-11T00:56:42.598Z,26.71
2022-10-11T00:59:18.136Z,26.71
2022-10-11T01:01:46.319Z,26.67
2022-10-11T01:05:17.928Z,26.68
2022-10-11T01:07:43.533Z,26.66
2022-10-11T01:10:11.956Z,26.64
2022-10-11T01:13:02.103Z,26.59
2022-10-11T01:15:43.066Z,26.60
2022-10-11T01:18:20.749Z,26.61
2022-10-11T01:20:59.259Z,26.59
2022-10-11T01:23:54.216Z,26.57
2022-10-11T01:26:31.953Z,26.54
2022-10-11T01:29:18.077Z,26.58
2022-10-11T01:32:09.533Z,26.58
2022-10-11T01:34:47.451Z,26.58
2022-10-11T01:37:25.172Z,26.54
2022-10-11T01:40:10.115Z,26.54
2022-10-11T01:42:40.591Z,26.53
2022-10-11T01:45:14.620Z,26.48
2022-10-11T01:47:42.901Z,26.50
2022-10-11T01:50:32.813Z,26.49
2022-10-11T01:53:11.074Z,26.50
2022-10-11T01:55:51.990Z,26.48
2022-10-11T01:58:33.470Z,26.47
2022-10-11T02:01:07.525Z,26.47
2022-10-11T02:03:49.113Z,26.46
2022-10-11T02:06:51.515Z,26.45
2022-10-11T02:09:58.874Z,26.48
2022-10-11T02:12:43.510Z,26.45
2022-10-11T02:15:13.977Z,26.42
2022-10-11T02:17:47.121Z,26.42
2022-10-11T02:20:20.250Z,26.41
2022-10-11T02:22:51.991Z,26.39
2022-10-11T02:25:24.571Z,26.39
2022-10-11T02:27:56.720Z,26.37
2022-10-11T02:30:24.930Z,26.39
2022-10-11T02:32:54.868Z,26.38
2022-10-11T02:35:25.391Z,26.36
2022-10-11T02:37:58.873Z,26.36
2022-10-11T02:40:31.471Z,26.34
2022-10-11T02:43:05.119Z,26.37
2022-10-11T02:45:39.576Z,26.36
2022-10-11T02:48:09.213Z,26.34
2022-10-11T02:50:39.362Z,26.34
2022-10-11T02:53:07.712Z,26.33
2022-10-11T02:55:36.605Z,26.32
2022-10-11T02:58:04.702Z,26.33
2022-10-11T03:00:32.852Z,26.32
2022-10-11T03:03:01.109Z,26.30
2022-10-11T03:05:29.424Z,26.29
2022-10-11T03:07:57.637Z,26.30
2022-10-11T03:10:25.907Z,26.28
2022-10-11T03:12:53.973Z,26.30
2022-10-11T03:15:22.460Z,26.28
2022-10-11T03:17:50.547Z,26.28
2022-10-11T03:20:19.043Z,26.30
2022-10-11T03:22:47.130Z,26.29
2022-10-11T03:25:15.398Z,26.26
2022-10-11T03:27:43.599Z,26.23
2022-10-11T03:30:17.327Z,26.22
2022-10-11T03:32:46.390Z,26.24
2022-10-11T03:35:14.804Z,26.24
2022-10-11T03:37:42.949Z,26.23
2022-10-11T03:40:11.927Z,26.23
2022-10-11T03:42:40.144Z,26.22
2022-10-11T03:45:09.918Z,26.21
2022-10-11T03:47:39.465Z,26.19
2022-10-11T03:50:08.566Z,26.19
2022-10-11T03:52:36.943Z,26.18
2022-10-11T03:55:06.694Z,26.19
2022-10-11T03:57:34.972Z,26.21
2022-10-11T04:00:03.465Z,26.16
2022-10-11T04:02:34.653Z,26.15
2022-10-11T04:05:06.756Z,26.16
2022-10-11T04:07:35.014Z,26.17
2022-10-11T04:10:03.255Z,26.16
2022-10-11T04:12:31.479Z,26.16
2022-10-11T04:14:59.685Z,26.17
2022-10-11T04:17:27.820Z,26.16
2022-10-11T04:19:55.955Z,26.17
2022-10-11T04:22:24.200Z,26.16
2022-10-11T04:24:52.419Z,26.15
2022-10-11T04:27:20.571Z,26.15
2022-10-11T04:29:48.776Z,26.15
2022-10-11T04:32:16.956Z,26.15
2022-10-11T04:34:45.389Z,26.21
2022-10-11T04:37:13.735Z,26.20
2022-10-11T04:39:42.128Z,26.16
2022-10-11T04:42:10.636Z,26.16
2022-10-11T04:44:38.918Z,26.18
2022-10-11T04:47:07.069Z,26.21
2022-10-11T04:49:35.319Z,26.19
2022-10-11T04:52:03.531Z,26.20
2022-10-11T04:54:32.160Z,26.20
2022-10-11T04:57:00.448Z,26.24
2022-10-11T04:59:28.598Z,26.26
2022-10-11T05:01:56.911Z,26.25
2022-10-11T05:04:25.189Z,26.29
2022-10-11T05:06:53.346Z,26.25
2022-10-11T05:09:22.090Z,26.25
2022-10-11T05:11:50.290Z,26.23
2022-10-11T05:14:18.450Z,26.20
2022-10-11T05:16:46.664Z,26.22
2022-10-11T05:19:14.968Z,26.22
2022-10-11T05:21:43.214Z,26.21
2022-10-11T05:24:11.294Z,26.15
2022-10-11T05:26:39.670Z,26.29
2022-10-11T05:29:07.956Z,26.29
2022-10-11T05:31:35.989Z,26.28
2022-10-11T05:34:04.261Z,26.27
2022-10-11T05:36:32.569Z,26.33
2022-10-11T05:39:00.803Z,26.32
2022-10-11T05:41:29.681Z,26.41
2022-10-11T05:43:57.901Z,26.30
2022-10-11T05:46:26.259Z,26.41
2022-10-11T05:48:54.619Z,26.34
2022-10-11T05:51:22.888Z,26.32
2022-10-11T05:53:51.247Z,26.33
2022-10-11T05:56:21.930Z,26.42
2022-10-11T05:58:51.134Z,26.52
2022-10-11T06:01:25.507Z,26.61
2022-10-11T06:03:54.113Z,26.66
2022-10-11T06:06:22.371Z,26.76
2022-10-11T06:08:50.699Z,26.81
2022-10-11T06:11:25.706Z,26.84
2022-10-11T06:13:55.836Z,26.91
2022-10-11T06:16:24.961Z,27.00
2022-10-11T06:18:57.101Z,27.02
2022-10-11T06:21:25.541Z,27.02
2022-10-11T06:23:59.931Z,27.06
2022-10-11T06:26:30.043Z,27.07
2022-10-11T06:28:58.947Z,27.06
2022-10-11T06:31:27.689Z,27.18
2022-10-11T06:33:55.952Z,27.21
2022-10-11T06:36:24.258Z,27.23
2022-10-11T06:38:53.689Z,27.22
2022-10-11T06:41:27.170Z,27.32
2022-10-11T06:43:56.553Z,27.36
2022-10-11T06:46:27.109Z,27.38
2022-10-11T06:48:56.764Z,27.41
2022-10-11T06:51:25.716Z,27.51
2022-10-11T06:53:56.588Z,27.54
2022-10-11T06:56:30.092Z,27.55
2022-10-11T06:58:59.880Z,27.62
2022-10-11T07:01:28.554Z,27.63
2022-10-11T07:03:58.436Z,27.61
2022-10-11T07:06:28.475Z,27.65
2022-10-11T07:08:56.861Z,27.71
2022-10-11T07:11:27.690Z,27.64
2022-10-11T07:13:58.390Z,27.71
2022-10-11T07:16:27.000Z,27.74
2022-10-11T07:19:00.538Z,27.74
2022-10-11T07:21:30.581Z,27.78
2022-10-11T07:23:59.558Z,27.81
2022-10-11T07:26:31.343Z,27.93
2022-10-11T07:29:02.414Z,27.88
2022-10-11T07:31:30.809Z,27.91
2022-10-11T07:33:59.204Z,27.97
2022-10-11T07:36:29.639Z,28.00
2022-10-11T07:38:58.202Z,28.03
2022-10-11T07:41:26.476Z,28.11
2022-10-11T07:43:55.339Z,28.13
2022-10-11T07:46:23.637Z,28.16
2022-10-11T07:48:51.921Z,28.21
2022-10-11T07:51:21.968Z,28.30
2022-10-11T07:53:52.128Z,28.30
2022-10-11T07:56:23.550Z,28.33
2022-10-11T07:58:57.435Z,28.35
2022-10-11T08:01:26.610Z,28.36
2022-10-11T08:03:54.836Z,28.38
2022-10-11T08:06:26.290Z,28.41
2022-10-11T08:08:54.473Z,28.50
2022-10-11T08:11:24.980Z,28.49
2022-10-11T08:13:53.404Z,28.72
2022-10-11T08:16:22.363Z,28.79
2022-10-11T08:18:50.851Z,28.70
2022-10-11T08:21:19.384Z,28.62
2022-10-11T08:23:47.604Z,28.61
2022-10-11T08:26:16.447Z,28.60
2022-10-11T08:28:44.812Z,28.71
2022-10-11T08:31:14.420Z,29.15
2022-10-11T08:33:42.729Z,29.13
2022-10-11T08:36:11.756Z,29.13
2022-10-11T08:38:41.461Z,29.07
2022-10-11T08:41:51.431Z,29.00
2022-10-11T08:44:58.320Z,29.14
2022-10-11T08:47:44.758Z,28.94
2022-10-11T08:50:19.987Z,29.04
2022-10-11T08:53:00.227Z,29.09
2022-10-11T08:55:44.253Z,29.11
2022-10-11T08:58:15.977Z,28.86
2022-10-11T09:00:45.163Z,29.01
2022-10-11T09:03:35.380Z,28.65
2022-10-11T09:06:25.694Z,28.52
2022-10-11T09:09:05.703Z,28.58
2022-10-11T09:11:41.112Z,28.59
2022-10-11T09:14:40.566Z,28.63
2022-10-11T09:17:30.447Z,28.71
2022-10-11T09:20:26.580Z,28.63
2022-10-11T09:23:21.970Z,28.62
2022-10-11T09:25:55.358Z,28.68
2022-10-11T09:28:41.416Z,28.68
2022-10-11T09:31:10.950Z,28.83
2022-10-11T09:33:46.742Z,28.70
2022-10-11T09:36:40.471Z,28.70
2022-10-11T09:39:37.649Z,28.74
2022-10-11T09:42:07.962Z,28.76
2022-10-11T09:44:57.675Z,28.71
2022-10-11T09:47:31.442Z,28.74
2022-10-11T09:50:15.115Z,28.73
2022-10-11T09:52:51.869Z,28.73
2022-10-11T09:55:39.182Z,28.70
2022-10-11T09:58:30.081Z,28.76
2022-10-11T10:01:07.888Z,28.77
2022-10-11T10:03:38.796Z,28.80
2022-10-11T10:06:20.056Z,28.78
2022-10-11T10:08:48.362Z,28.66
2022-10-11T10:11:17.963Z,28.71
2022-10-11T10:13:53.327Z,28.71
2022-10-11T10:16:27.443Z,28.72
2022-10-11T10:19:07.134Z,28.71
2022-10-11T10:21:37.951Z,28.75
2022-10-11T10:24:10.975Z,28.74
2022-10-11T10:26:40.226Z,28.75
2022-10-11T10:29:11.449Z,28.76
2022-10-11T10:32:14.311Z,28.71
2022-10-11T10:34:52.733Z,28.74
2022-10-11T10:37:31.886Z,28.66
2022-10-11T10:40:07.941Z,28.83
2022-10-11T10:42:36.340Z,28.70
2022-10-11T10:45:09.789Z,28.78
2022-10-11T10:48:02.483Z,28.68
2022-10-11T10:50:46.004Z,28.75
2022-10-11T10:53:26.658Z,28.67
2022-10-11T10:56:27.135Z,28.46
2022-10-11T10:59:03.992Z,28.53
2022-10-11T11:01:33.896Z,28.59
2022-10-11T11:04:10.882Z,28.63
2022-10-11T11:06:50.385Z,28.64
2022-10-11T11:09:40.044Z,28.69
2022-10-11T11:12:23.956Z,28.72
2022-10-11T11:15:02.175Z,28.76
2022-10-11T11:17:42.412Z,28.77
2022-10-11T11:20:44.892Z,28.75
2022-10-11T11:23:34.888Z,28.83
2022-10-11T11:26:18.220Z,28.83
2022-10-11T11:28:55.332Z,28.81
2022-10-11T11:32:14.257Z,28.82
2022-10-11T11:34:48.051Z,28.85
2022-10-11T11:37:23.888Z,28.80
2022-10-11T11:40:00.503Z,28.78
2022-10-11T11:42:40.179Z,28.80
2022-10-11T11:45:29.766Z,28.77
2022-10-11T11:48:11.110Z,28.82
2022-10-11T11:50:43.991Z,28.79
2022-10-11T11:53:18.024Z,28.75
2022-10-11T11:56:10.083Z,28.73
2022-10-11T11:58:38.340Z,28.75
2022-10-11T12:01:16.482Z,28.71
2022-10-11T12:04:02.300Z,28.69
2022-10-11T12:06:32.723Z,28.66
2022-10-11T12:09:08.577Z,28.65
2022-10-11T12:11:46.498Z,28.61
2022-10-11T12:14:22.451Z,28.61
2022-10-11T12:17:23.695Z,28.62
2022-10-11T12:20:12.940Z,28.66
2022-10-11T12:22:52.287Z,28.64
2022-10-11T12:25:23.364Z,28.60
2022-10-11T12:27:53.819Z,28.57
2022-10-11T12:30:55.711Z,28.55
2022-10-11T12:33:26.482Z,28.58
2022-10-11T12:35:54.715Z,28.54
2022-10-11T12:38:27.012Z,28.50
2022-10-11T12:41:01.499Z,28.50
2022-10-11T12:43:33.275Z,28.50
2022-10-11T12:46:31.323Z,28.47
2022-10-11T12:49:05.546Z,28.49
2022-10-11T12:51:44.658Z,28.46
2022-10-11T12:54:27.342Z,28.46
2022-10-11T12:57:31.894Z,28.45
2022-10-11T13:00:29.327Z,28.50
2022-10-11T13:03:29.753Z,28.49
2022-10-11T13:06:02.077Z,28.54
2022-10-11T13:08:36.725Z,28.50
2022-10-11T13:11:06.985Z,28.49
2022-10-11T13:13:54.021Z,28.52
2022-10-11T13:16:45.183Z,28.52
2022-10-11T13:19:14.274Z,28.55
2022-10-11T13:21:43.767Z,28.51
2022-10-11T13:24:18.184Z,28.47
2022-10-11T13:26:48.583Z,28.52
2022-10-11T13:29:19.817Z,28.52
2022-10-11T13:31:48.699Z,28.49
2022-10-11T13:34:22.393Z,28.61
2022-10-11T13:36:56.701Z,28.59
2022-10-11T13:39:35.695Z,28.54
2022-10-11T13:42:13.692Z,28.55
2022-10-11T13:44:43.028Z,28.58
2022-10-11T13:47:19.100Z,28.56
2022-10-11T13:49:53.700Z,28.54
2022-10-11T13:52:23.696Z,28.56
2022-10-11T13:55:10.154Z,28.55
2022-10-11T13:57:41.482Z,28.54
2022-10-11T14:00:20.014Z,28.55
2022-10-11T14:02:51.363Z,28.56
2022-10-11T14:05:25.922Z,28.61
2022-10-11T14:07:54.211Z,28.56
2022-10-11T14:10:22.922Z,28.61
2022-10-11T14:13:21.247Z,28.59
2022-10-11T14:15:59.642Z,28.50
2022-10-11T14:18:48.938Z,28.61
2022-10-11T14:21:20.463Z,28.62
2022-10-11T14:23:54.136Z,28.62
2022-10-11T14:26:23.550Z,28.61
2022-10-11T14:28:56.926Z,28.56
2022-10-11T14:31:25.519Z,28.56
2022-10-11T14:33:55.158Z,28.57
2022-10-11T14:36:24.407Z,28.62
2022-10-11T14:38:53.390Z,28.55
2022-10-11T14:41:21.702Z,28.67
2022-10-11T14:43:50.186Z,28.69
2022-10-11T14:46:26.063Z,28.65
2022-10-11T14:48:56.556Z,28.63
2022-10-11T14:51:30.265Z,28.63
2022-10-11T14:53:59.157Z,28.61
2022-10-11T14:56:27.442Z,28.60
2022-10-11T14:58:55.802Z,28.60
2022-10-11T15:01:24.121Z,28.62
2022-10-11T15:03:52.424Z,28.58
2022-10-11T15:06:23.080Z,28.56
2022-10-11T15:08:51.408Z,28.57
2022-10-11T15:11:20.769Z,28.59
2022-10-11T15:13:49.559Z,28.58
2022-10-11T15:16:21.000Z,28.61
2022-10-11T15:18:52.986Z,28.67
2022-10-11T15:21:24.591Z,28.66
2022-10-11T15:23:53.824Z,28.61
2022-10-11T15:26:25.631Z,28.66
2022-10-11T15:28:55.182Z,28.57
2022-10-11T15:31:23.871Z,28.62
2022-10-11T15:33:52.185Z,28.59
2022-10-11T15:36:22.209Z,28.52
2022-10-11T15:38:50.342Z,28.57
2022-10-11T15:41:20.218Z,28.58
2022-10-11T15:43:49.157Z,28.56
2022-10-11T15:46:19.906Z,28.56
2022-10-11T15:48:49.369Z,28.55
2022-10-11T15:51:17.806Z,28.55
2022-10-11T15:53:46.785Z,28.55
2022-10-11T15:56:18.852Z,28.53
2022-10-11T15:58:47.297Z,28.49
2022-10-11T16:01:18.916Z,28.46
2022-10-11T16:03:49.450Z,28.48
2022-10-11T16:06:19.064Z,28.47
2022-10-11T16:08:48.138Z,28.50
2022-10-11T16:11:16.513Z,28.44
2022-10-11T16:13:45.440Z,28.42
2022-10-11T16:16:13.904Z,28.42
2022-10-11T16:18:42.117Z,28.41
2022-10-11T16:21:12.041Z,28.40
2022-10-11T16:23:40.210Z,28.35
2022-10-11T16:26:12.073Z,28.40
2022-10-11T16:28:40.445Z,28.39
2022-10-11T16:31:11.341Z,28.38
2022-10-11T16:33:46.216Z,28.37
2022-10-11T16:36:32.177Z,28.36
2022-10-11T16:39:02.042Z,28.35
2022-10-11T16:41:30.275Z,28.33
2022-10-11T16:43:58.533Z,28.32
2022-10-11T16:46:26.909Z,28.32
2022-10-11T16:48:56.311Z,28.29
2022-10-11T16:51:25.020Z,28.30
2022-10-11T16:53:53.646Z,28.27
2022-10-11T16:56:24.292Z,28.28
2022-10-11T16:58:53.541Z,28.29
2022-10-11T17:01:22.211Z,28.26
2022-10-11T17:03:51.207Z,28.23
2022-10-11T17:06:20.284Z,28.26
2022-10-11T17:08:48.505Z,28.26
2022-10-11T17:11:17.857Z,28.24
2022-10-11T17:13:46.248Z,28.21
2022-10-11T17:16:15.157Z,28.24
2022-10-11T17:18:43.992Z,28.24
2022-10-11T17:21:15.161Z,28.24
2022-10-11T17:23:43.869Z,28.23
2022-10-11T17:26:19.138Z,28.22
2022-10-11T17:28:48.073Z,28.19
2022-10-11T17:31:16.972Z,28.18
2022-10-11T17:33:45.242Z,28.17
2022-10-11T17:36:20.119Z,28.16
2022-10-11T17:38:48.916Z,28.14
2022-10-11T17:41:17.628Z,28.14
2022-10-11T17:43:46.007Z,28.12
2022-10-11T17:46:15.599Z,28.11
2022-10-11T17:48:44.952Z,28.08
2022-10-11T17:51:16.595Z,28.16
2022-10-11T17:53:45.382Z,28.17
2022-10-11T17:56:16.491Z,28.18
2022-10-11T17:58:45.417Z,28.20
2022-10-11T18:01:16.482Z,28.21
2022-10-11T18:03:45.584Z,28.26
2022-10-11T18:06:14.025Z,28.28
2022-10-11T18:08:42.679Z,28.37
2022-10-11T18:11:14.469Z,28.44
2022-10-11T18:13:46.419Z,28.41
2022-10-11T18:16:16.479Z,28.48
2022-10-11T18:18:45.075Z,28.51
2022-10-11T18:21:14.619Z,28.52
2022-10-11T18:23:43.148Z,28.51
2022-10-11T18:26:11.895Z,28.51
2022-10-11T18:28:41.058Z,28.50
2022-10-11T18:31:13.493Z,28.57
2022-10-11T18:33:43.496Z,28.59
2022-10-11T18:36:13.959Z,28.59
2022-10-11T18:38:46.692Z,28.61
2022-10-11T18:41:20.270Z,28.62
2022-10-11T18:43:50.300Z,28.70
2022-10-11T18:46:19.854Z,28.65
2022-10-11T18:48:50.405Z,28.67
2022-10-11T18:51:29.857Z,28.66
2022-10-11T18:54:01.208Z,28.67
2022-10-11T18:56:30.585Z,28.68
2022-10-11T18:58:59.853Z,28.68
2022-10-11T19:01:30.993Z,28.66
2022-10-11T19:04:00.816Z,28.65
2022-10-11T19:06:32.623Z,28.67
2022-10-11T19:09:04.166Z,28.66
2022-10-11T19:11:33.002Z,28.67
2022-10-11T19:14:02.790Z,28.66
2022-10-11T19:16:31.266Z,28.64
2022-10-11T19:18:59.689Z,28.68
2022-10-11T19:21:27.952Z,28.67
2022-10-11T19:23:56.890Z,28.69
2022-10-11T19:26:30.327Z,28.66
2022-10-11T19:29:00.793Z,28.67
2022-10-11T19:31:29.474Z,28.71
2022-10-11T19:33:58.065Z,28.68
2022-10-11T19:36:33.962Z,28.69
2022-10-11T19:39:05.593Z,28.60
2022-10-11T19:41:34.050Z,28.60
2022-10-11T19:44:02.253Z,28.61
2022-10-11T19:49:21.696Z,28.62
2022-10-11T19:51:49.988Z,28.55
2022-10-11T19:54:18.619Z,28.43
2022-10-11T19:56:47.268Z,28.50
2022-10-11T19:59:15.805Z,28.52
2022-10-11T20:01:49.361Z,28.47
2022-10-11T20:04:51.154Z,28.43
2022-10-11T20:07:10.273Z,28.33
2022-10-11T20:09:38.462Z,28.28
2022-10-11T20:12:07.107Z,28.27
2022-10-11T20:14:35.215Z,28.26
2022-10-11T20:17:03.656Z,28.19
2022-10-11T20:19:32.012Z,28.30
2022-10-11T20:22:01.152Z,28.44
2022-10-11T20:24:33.354Z,28.47
2022-10-11T20:27:06.644Z,28.48
2022-10-11T20:29:35.660Z,28.50
2022-10-11T20:32:04.025Z,28.50
2022-10-11T20:34:32.279Z,28.51
2022-10-11T20:37:00.543Z,28.48
2022-10-11T20:39:28.683Z,28.48
2022-10-11T20:41:57.085Z,28.51
2022-10-11T20:44:25.347Z,28.53
2022-10-11T20:46:53.759Z,28.52
2022-10-11T20:49:22.694Z,28.56
2022-10-11T20:51:51.060Z,28.56
2022-10-11T20:54:19.319Z,28.48
2022-10-11T20:56:47.624Z,28.50
2022-10-11T20:59:15.920Z,28.53
2022-10-11T21:01:44.188Z,28.50
2022-10-11T21:04:18.606Z,28.49
2022-10-11T21:06:48.137Z,28.47
2022-10-11T21:09:17.339Z,28.44
2022-10-11T21:11:46.462Z,28.45
2022-10-11T21:14:14.980Z,28.47
2022-10-11T21:16:43.163Z,28.47
2022-10-11T21:19:14.383Z,28.51
2022-10-11T21:21:52.509Z,28.52
2022-10-11T21:24:21.926Z,28.57
2022-10-11T21:26:50.235Z,28.57
2022-10-11T21:29:18.543Z,28.58
2022-10-11T21:31:46.652Z,28.58
2022-10-11T21:34:14.811Z,28.58
2022-10-11T21:36:43.723Z,28.61
2022-10-11T21:39:12.080Z,28.58
2022-10-11T21:41:42.375Z,28.60
2022-10-11T21:44:10.587Z,28.57
2022-10-11T21:49:26.951Z,28.56
2022-10-11T21:51:55.770Z,28.58
2022-10-11T21:54:26.111Z,28.58
2022-10-11T21:56:54.568Z,28.55
2022-10-11T21:59:22.788Z,28.56
2022-10-11T22:01:51.191Z,28.52
2022-10-11T22:04:19.352Z,28.49
2022-10-11T22:06:47.583Z,28.48
2022-10-11T22:09:15.800Z,28.47
2022-10-11T22:11:43.905Z,28.42
2022-10-11T22:14:12.244Z,28.44
2022-10-11T22:16:41.097Z,28.41
2022-10-11T22:19:09.307Z,28.39
2022-10-11T22:21:40.218Z,28.40
2022-10-11T22:24:12.428Z,28.41
2022-10-11T22:26:40.499Z,28.41
2022-10-11T22:29:08.789Z,28.41
2022-10-11T22:31:37.045Z,28.43
2022-10-11T22:34:05.144Z,28.39
2022-10-11T22:36:33.986Z,28.41
2022-10-11T22:39:07.881Z,28.40
2022-10-11T22:41:36.560Z,28.38
2022-10-11T22:44:04.979Z,28.40
2022-10-11T22:46:33.346Z,28.36
2022-10-11T22:49:01.521Z,28.36
2022-10-11T22:51:29.670Z,28.33
2022-10-11T22:53:57.873Z,28.31
2022-10-11T22:56:26.073Z,28.28
2022-10-11T22:58:54.293Z,28.28
2022-10-11T23:01:22.365Z,28.22
2022-10-11T23:03:50.955Z,28.23
2022-10-11T23:06:19.217Z,28.24
2022-10-11T23:08:47.404Z,28.20
2022-10-11T23:11:15.682Z,28.17
2022-10-11T23:13:43.935Z,28.14
2022-10-11T23:16:13.395Z,28.16
2022-10-11T23:18:42.230Z,28.13
2022-10-11T23:21:10.740Z,28.13
2022-10-11T23:23:40.113Z,28.12
2022-10-11T23:26:13.873Z,28.13
2022-10-11T23:28:43.173Z,28.12
2022-10-11T23:31:14.363Z,28.13
2022-10-11T23:33:43.353Z,28.15
2022-10-11T23:36:24.719Z,28.14
2022-10-11T23:38:57.546Z,28.13
2022-10-11T23:41:29.094Z,28.12
2022-10-11T23:43:58.290Z,28.12
2022-10-11T23:46:26.456Z,28.11
2022-10-11T23:48:54.676Z,28.13
2022-10-11T23:51:22.858Z,28.11
2022-10-11T23:53:51.124Z,28.12
2022-10-11T23:56:19.253Z,28.12
2022-10-11T23:58:47.477Z,28.10
